Time;durP1;ratioP1;P1;durP2;ratioP2;P2;SDS_P1;SDS_P2;PMS_P1;PMS_P2;Temp;Humidity;BMP_temperature;BMP_pressure;BME280_temperature;BME280_humidity;BME280_pressure;Samples;Min_cycle;Max_cycle;Signal;HPM_P1;HPM_P2
2024/04/04 00:01:02;;;;;;;;;60.00;39.75;;;;;;;;10462341;28;42921;-62
2024/04/04 00:06:06;;;;;;;;;54.75;38.00;;;;;;;;10459945;27;43763;-63
2024/04/04 00:11:11;;;;;;;;;55.00;38.00;;;;;;;;10460528;28;43807;-60
2024/04/04 00:16:15;;;;;;;;;64.75;40.75;;;;;;;;10459892;28;43183;-61
2024/04/04 00:21:19;;;;;;;;;58.25;39.75;;;;;;;;10467897;28;43022;-61
2024/04/04 00:26:22;;;;;;;;;55.75;39.00;;;;;;;;10458622;27;43526;-59
2024/04/04 00:31:26;;;;;;;;;54.75;39.00;;;;;;;;10462371;27;43336;-59
2024/04/04 00:36:29;;;;;;;;;57.50;36.00;;;;;;;;10455075;28;43177;-63
2024/04/04 00:41:33;;;;;;;;;62.25;40.25;;;;;;;;10457689;28;44080;-63
2024/04/04 00:46:36;;;;;;;;;59.75;37.25;;;;;;;;10463312;28;43002;-62
2024/04/04 00:51:39;;;;;;;;;56.50;37.75;;;;;;;;10499887;28;43035;-62
2024/04/04 00:56:44;;;;;;;;;58.25;36.25;;;;;;;;10499698;28;43469;-64
2024/04/04 01:01:47;;;;;;;;;60.25;39.50;;;;;;;;10465033;28;44687;-62
2024/04/04 01:06:51;;;;;;;;;59.50;37.50;;;;;;;;10469144;28;43242;-62
2024/04/04 01:11:55;;;;;;;;;62.00;36.50;;;;;;;;10458070;28;43714;-58
2024/04/04 01:17:04;;;;;;;;;58.50;37.50;;;;;;;;10459269;28;42949;-61
2024/04/04 01:22:07;;;;;;;;;60.00;37.00;;;;;;;;10440603;28;42985;-61
2024/04/04 01:27:13;;;;;;;;;52.25;31.50;;;;;;;;10456490;28;42888;-61
2024/04/04 01:32:17;;;;;;;;;51.25;31.75;;;;;;;;10457064;28;43140;-61
2024/04/04 01:37:21;;;;;;;;;53.25;32.00;;;;;;;;10478361;28;43359;-59
2024/04/04 01:42:25;;;;;;;;;54.25;29.75;;;;;;;;10498557;28;42950;-62
2024/04/04 01:47:29;;;;;;;;;48.75;32.00;;;;;;;;10498948;28;42980;-62
2024/04/04 01:52:34;;;;;;;;;49.00;32.00;;;;;;;;10465740;28;42899;-63
2024/04/04 01:57:46;;;;;;;;;50.00;29.75;;;;;;;;10454286;28;42964;-63
2024/04/04 02:02:48;;;;;;;;;48.75;28.50;;;;;;;;10458866;27;44350;-64
2024/04/04 02:07:50;;;;;;;;;53.00;31.25;;;;;;;;10461588;28;43892;-63
2024/04/04 02:12:53;;;;;;;;;52.50;29.75;;;;;;;;10440872;28;43203;-63
2024/04/04 02:17:56;;;;;;;;;49.50;29.25;;;;;;;;10433337;28;43099;-63
2024/04/04 02:23:00;;;;;;;;;44.25;25.50;;;;;;;;10441026;28;43309;-63
2024/04/04 02:28:04;;;;;;;;;55.75;28.50;;;;;;;;10434699;28;43042;-63
2024/04/04 02:33:09;;;;;;;;;47.00;27.50;;;;;;;;10446759;28;42996;-63
2024/04/04 02:38:12;;;;;;;;;45.00;22.75;;;;;;;;10454959;28;43316;-63
2024/04/04 02:43:16;;;;;;;;;42.50;23.50;;;;;;;;10443580;28;43102;-61
2024/04/04 02:48:20;;;;;;;;;49.00;23.50;;;;;;;;10459083;28;43944;-61
2024/04/04 02:53:24;;;;;;;;;50.50;23.25;;;;;;;;10450446;28;42999;-58
2024/04/04 02:58:28;;;;;;;;;44.75;25.00;;;;;;;;10467414;27;43002;-62
2024/04/04 03:03:31;;;;;;;;;52.50;28.75;;;;;;;;10451710;28;44622;-62
2024/04/04 03:08:34;;;;;;;;;51.75;28.75;;;;;;;;10455063;28;43128;-62
2024/04/04 03:13:39;;;;;;;;;49.00;24.00;;;;;;;;10454152;28;44347;-62
2024/04/04 03:18:42;;;;;;;;;44.00;25.00;;;;;;;;10486572;28;43021;-61
2024/04/04 03:23:46;;;;;;;;;46.75;25.00;;;;;;;;10484475;28;43300;-61
2024/04/04 03:28:50;;;;;;;;;49.00;25.00;;;;;;;;10454398;28;43078;-61
2024/04/04 03:33:55;;;;;;;;;45.75;24.50;;;;;;;;10487557;28;42933;-62
2024/04/04 03:38:59;;;;;;;;;48.75;23.00;;;;;;;;10439316;28;43324;-61
2024/04/04 03:44:05;;;;;;;;;41.75;23.50;;;;;;;;10429235;28;42993;-62
2024/04/04 03:49:09;;;;;;;;;37.00;21.00;;;;;;;;10399662;28;44655;-62
2024/04/04 03:54:13;;;;;;;;;37.50;21.75;;;;;;;;10386643;28;43631;-60
2024/04/04 03:59:17;;;;;;;;;44.75;23.00;;;;;;;;10386277;28;43740;-61
2024/04/04 04:04:20;;;;;;;;;39.25;22.75;;;;;;;;10385406;28;43025;-61
2024/04/04 04:09:23;;;;;;;;;45.25;19.75;;;;;;;;10411729;28;43049;-59
2024/04/04 04:14:27;;;;;;;;;42.50;24.00;;;;;;;;10426076;28;44046;-59
2024/04/04 04:19:31;;;;;;;;;44.25;23.75;;;;;;;;10411719;28;42970;-59
2024/04/04 04:24:34;;;;;;;;;42.75;23.25;;;;;;;;10409447;28;43442;-59
2024/04/04 04:29:38;;;;;;;;;37.75;19.75;;;;;;;;10386228;28;49460;-60
2024/04/04 04:34:42;;;;;;;;;46.25;23.50;;;;;;;;10384543;28;44207;-60
2024/04/04 04:39:45;;;;;;;;;48.00;26.50;;;;;;;;10418304;28;43243;-61
2024/04/04 04:44:50;;;;;;;;;46.00;23.75;;;;;;;;10428532;28;43095;-63
2024/04/04 04:49:53;;;;;;;;;43.50;24.50;;;;;;;;10432837;28;43096;-60
2024/04/04 04:54:57;;;;;;;;;44.00;22.25;;;;;;;;10433995;28;43041;-61
2024/04/04 05:00:01;;;;;;;;;48.25;25.00;;;;;;;;10433759;28;43191;-60
2024/04/04 05:05:13;;;;;;;;;41.75;21.25;;;;;;;;10433245;28;43222;-59
2024/04/04 05:10:17;;;;;;;;;45.00;24.25;;;;;;;;10423845;28;43017;-60
2024/04/04 05:15:21;;;;;;;;;40.75;26.50;;;;;;;;10425770;28;43205;-58
2024/04/04 05:20:25;;;;;;;;;42.25;25.00;;;;;;;;10419680;28;42952;-58
2024/04/04 05:25:28;;;;;;;;;46.25;25.25;;;;;;;;10423814;28;44182;-60
2024/04/04 05:30:32;;;;;;;;;46.75;26.00;;;;;;;;10433226;28;43566;-59
2024/04/04 05:35:35;;;;;;;;;43.50;23.25;;;;;;;;10434272;28;43050;-61
2024/04/04 05:40:39;;;;;;;;;43.00;22.50;;;;;;;;10499673;28;42893;-61
2024/04/04 05:45:44;;;;;;;;;41.00;25.25;;;;;;;;10492184;28;43035;-61
2024/04/04 05:50:48;;;;;;;;;42.25;24.75;;;;;;;;10497801;28;42966;-61
2024/04/04 05:55:53;;;;;;;;;40.75;21.50;;;;;;;;10497791;27;43762;-60
2024/04/04 06:00:56;;;;;;;;;48.00;28.25;;;;;;;;10498625;28;44542;-61
2024/04/04 06:06:01;;;;;;;;;46.00;23.50;;;;;;;;10499197;28;43770;-63
2024/04/04 06:11:04;;;;;;;;;40.75;22.25;;;;;;;;10498414;27;43020;-60
2024/04/04 06:16:08;;;;;;;;;43.50;23.00;;;;;;;;10498708;28;43996;-63
2024/04/04 06:21:12;;;;;;;;;37.75;22.50;;;;;;;;10498419;28;43055;-63
2024/04/04 06:26:17;;;;;;;;;45.50;24.25;;;;;;;;10465078;28;43496;-63
2024/04/04 06:31:20;;;;;;;;;44.25;26.25;;;;;;;;10475137;28;42930;-61
2024/04/04 06:36:23;;;;;;;;;43.25;24.75;;;;;;;;10482230;28;42961;-60
2024/04/04 06:41:27;;;;;;;;;44.50;25.25;;;;;;;;10430881;28;44461;-61
2024/04/04 06:46:31;;;;;;;;;42.00;24.75;;;;;;;;10430514;28;43286;-61
2024/04/04 06:51:35;;;;;;;;;47.50;25.75;;;;;;;;10429561;28;43344;-59
2024/04/04 06:56:39;;;;;;;;;51.00;31.75;;;;;;;;10429365;28;43740;-61
2024/04/04 07:01:44;;;;;;;;;47.50;30.25;;;;;;;;10420619;28;42977;-58
2024/04/04 07:06:48;;;;;;;;;52.50;32.00;;;;;;;;10388045;28;43123;-63
2024/04/04 07:11:52;;;;;;;;;48.00;30.25;;;;;;;;10404754;28;43063;-62
2024/04/04 07:16:56;;;;;;;;;57.25;31.25;;;;;;;;10388249;28;43010;-62
2024/04/04 07:22:00;;;;;;;;;50.00;29.50;;;;;;;;10388202;28;44348;-63
2024/04/04 07:27:05;;;;;;;;;47.25;30.00;;;;;;;;10388285;28;43239;-61
2024/04/04 07:32:09;;;;;;;;;48.50;29.25;;;;;;;;10386928;28;43267;-64
2024/04/04 07:37:12;;;;;;;;;53.75;31.00;;;;;;;;10414965;28;43330;-62
2024/04/04 07:42:17;;;;;;;;;52.00;30.25;;;;;;;;10437929;28;43328;-63
2024/04/04 07:47:22;;;;;;;;;54.25;33.50;;;;;;;;10494773;28;42936;-62
2024/04/04 07:52:25;;;;;;;;;52.00;32.25;;;;;;;;10473137;28;43513;-63
2024/04/04 07:57:28;;;;;;;;;50.25;29.00;;;;;;;;10452388;28;43006;-62
2024/04/04 08:02:32;;;;;;;;;49.25;28.00;;;;;;;;10452170;28;43242;-60
2024/04/04 08:07:36;;;;;;;;;53.75;29.50;;;;;;;;10451407;27;44140;-64
2024/04/04 08:12:40;;;;;;;;;46.50;31.00;;;;;;;;10440325;28;43240;-59
2024/04/04 08:17:46;;;;;;;;;54.75;29.50;;;;;;;;10454931;28;43010;-61
2024/04/04 08:22:51;;;;;;;;;47.75;29.75;;;;;;;;10449816;28;44078;-62
2024/04/04 08:27:54;;;;;;;;;46.50;30.00;;;;;;;;10425876;28;43670;-61
2024/04/04 08:32:57;;;;;;;;;49.25;31.75;;;;;;;;10441313;28;43021;-61
2024/04/04 08:38:02;;;;;;;;;49.25;26.75;;;;;;;;10438526;28;43041;-61
2024/04/04 08:43:06;;;;;;;;;50.00;29.00;;;;;;;;10454712;28;49558;-61
2024/04/04 08:48:10;;;;;;;;;48.25;27.50;;;;;;;;10436656;28;43151;-63
2024/04/04 08:53:21;;;;;;;;;50.75;29.75;;;;;;;;10420695;28;43064;-62
2024/04/04 08:58:25;;;;;;;;;48.25;28.50;;;;;;;;10399668;28;43303;-61
2024/04/04 09:03:29;;;;;;;;;46.00;26.00;;;;;;;;10426192;28;43011;-63
2024/04/04 09:08:32;;;;;;;;;54.50;33.50;;;;;;;;10439742;28;43021;-62
2024/04/04 09:13:37;;;;;;;;;49.00;28.75;;;;;;;;10436638;28;43752;-59
2024/04/04 09:18:41;;;;;;;;;51.50;33.25;;;;;;;;10428736;28;44719;-62
2024/04/04 09:23:44;;;;;;;;;45.25;27.50;;;;;;;;10434367;28;43050;-61
2024/04/04 09:28:47;;;;;;;;;47.75;30.50;;;;;;;;10441289;28;42979;-62
2024/04/04 09:33:51;;;;;;;;;49.00;30.25;;;;;;;;10431149;28;43014;-62
2024/04/04 09:38:57;;;;;;;;;47.75;30.75;;;;;;;;10388979;28;43708;-62
2024/04/04 09:44:02;;;;;;;;;45.25;28.75;;;;;;;;10386423;28;43601;-62
2024/04/04 09:49:06;;;;;;;;;46.75;26.25;;;;;;;;10387340;28;43890;-63
2024/04/04 09:54:10;;;;;;;;;43.00;27.75;;;;;;;;10386331;28;44180;-62
2024/04/04 09:59:13;;;;;;;;;47.75;24.25;;;;;;;;10386408;28;43395;-62
2024/04/04 10:04:19;;;;;;;;;49.00;28.50;;;;;;;;10386861;28;43804;-62
2024/04/04 10:09:24;;;;;;;;;48.25;28.00;;;;;;;;10391147;28;44635;-63
2024/04/04 10:14:28;;;;;;;;;48.00;31.75;;;;;;;;10393794;28;44949;-62
2024/04/04 10:19:34;;;;;;;;;51.75;31.75;;;;;;;;10393676;28;43162;-64
2024/04/04 10:24:38;;;;;;;;;58.25;32.75;;;;;;;;10390109;28;44557;-62
2024/04/04 10:29:42;;;;;;;;;50.00;31.50;;;;;;;;10397090;28;43758;-61
2024/04/04 10:34:46;;;;;;;;;55.25;31.00;;;;;;;;10387035;28;43208;-62
2024/04/04 10:39:50;;;;;;;;;55.50;34.50;;;;;;;;10386618;28;43575;-61
2024/04/04 10:44:54;;;;;;;;;56.50;32.75;;;;;;;;10398763;28;43033;-62
2024/04/04 10:49:57;;;;;;;;;48.25;30.25;;;;;;;;10396741;28;45700;-62
2024/04/04 10:55:01;;;;;;;;;54.00;34.00;;;;;;;;10397118;28;42979;-67
2024/04/04 11:00:11;;;;;;;;;60.00;34.75;;;;;;;;10395370;28;43092;-68
2024/04/04 11:05:14;;;;;;;;;60.00;35.00;;;;;;;;10402951;28;43485;-62
2024/04/04 11:10:17;;;;;;;;;53.00;34.25;;;;;;;;10393897;28;43054;-62
2024/04/04 11:15:21;;;;;;;;;53.00;30.75;;;;;;;;10392373;28;43478;-61
2024/04/04 11:20:26;;;;;;;;;52.50;32.50;;;;;;;;10396428;28;48989;-61
2024/04/04 11:25:29;;;;;;;;;53.75;32.25;;;;;;;;10394730;28;48560;-61
2024/04/04 11:30:33;;;;;;;;;54.50;33.75;;;;;;;;10395614;28;43133;-61
2024/04/04 11:35:37;;;;;;;;;56.25;35.00;;;;;;;;10393717;28;49453;-61
2024/04/04 11:40:41;;;;;;;;;50.00;33.00;;;;;;;;10390141;28;48271;-61
2024/04/04 11:45:45;;;;;;;;;52.75;35.00;;;;;;;;10389693;28;49586;-61
2024/04/04 11:50:50;;;;;;;;;55.50;32.50;;;;;;;;10392773;28;48418;-61
2024/04/04 11:55:54;;;;;;;;;54.25;34.75;;;;;;;;10391457;28;49866;-61
2024/04/04 12:00:59;;;;;;;;;53.00;34.00;;;;;;;;10394238;28;48300;-61
2024/04/04 12:06:05;;;;;;;;;51.75;30.50;;;;;;;;10394524;28;49039;-61
2024/04/04 12:11:09;;;;;;;;;56.25;34.25;;;;;;;;10378001;28;43015;-61
2024/04/04 12:16:13;;;;;;;;;49.50;32.00;;;;;;;;10389805;28;44493;-60
2024/04/04 12:21:17;;;;;;;;;60.25;33.00;;;;;;;;10391779;28;43976;-61
2024/04/04 12:26:21;;;;;;;;;54.25;31.00;;;;;;;;10391402;28;43925;-62
2024/04/04 12:31:25;;;;;;;;;51.50;32.25;;;;;;;;10385153;28;43745;-61
2024/04/04 12:36:30;;;;;;;;;56.50;31.25;;;;;;;;10398954;28;43781;-61
2024/04/04 12:41:33;;;;;;;;;58.75;33.25;;;;;;;;10443666;28;45595;-61
2024/04/04 12:46:40;;;;;;;;;52.75;31.75;;;;;;;;10448302;28;43857;-60
2024/04/04 12:51:43;;;;;;;;;52.00;32.00;;;;;;;;10446191;28;43584;-61
2024/04/04 12:56:47;;;;;;;;;52.00;31.00;;;;;;;;10434400;28;43298;-60
2024/04/04 13:01:51;;;;;;;;;58.25;35.50;;;;;;;;10450069;28;42985;-60
2024/04/04 13:06:54;;;;;;;;;56.00;33.00;;;;;;;;10474608;27;43652;-61
2024/04/04 13:11:59;;;;;;;;;50.25;32.00;;;;;;;;10476531;28;42967;-61
2024/04/04 13:17:03;;;;;;;;;50.75;32.75;;;;;;;;10474719;28;43604;-60
2024/04/04 13:22:10;;;;;;;;;47.50;30.00;;;;;;;;10472831;28;43054;-60
2024/04/04 13:27:13;;;;;;;;;50.25;30.00;;;;;;;;10430384;28;43681;-60
2024/04/04 13:32:16;;;;;;;;;49.50;31.50;;;;;;;;10429213;28;43578;-61
2024/04/04 13:37:20;;;;;;;;;50.00;30.75;;;;;;;;10448709;28;42962;-61
2024/04/04 13:42:24;;;;;;;;;55.75;32.00;;;;;;;;10457058;28;42961;-61
2024/04/04 13:47:28;;;;;;;;;51.00;28.75;;;;;;;;10456927;28;43104;-61
2024/04/04 13:52:32;;;;;;;;;49.25;27.00;;;;;;;;10490376;28;43482;-61
2024/04/04 13:57:35;;;;;;;;;53.75;33.00;;;;;;;;10457584;28;43057;-61
2024/04/04 14:02:39;;;;;;;;;54.00;32.75;;;;;;;;10456553;28;43766;-61
2024/04/04 14:07:43;;;;;;;;;51.50;32.75;;;;;;;;10456052;28;43035;-61
2024/04/04 14:12:49;;;;;;;;;47.50;30.00;;;;;;;;10457062;28;43268;-61
2024/04/04 14:17:52;;;;;;;;;50.25;30.00;;;;;;;;10459383;28;44226;-61
2024/04/04 14:22:56;;;;;;;;;51.00;31.50;;;;;;;;10492542;28;43485;-61
2024/04/04 14:28:00;;;;;;;;;52.75;30.75;;;;;;;;10455816;28;42976;-61
2024/04/04 14:33:03;;;;;;;;;49.75;32.75;;;;;;;;10455573;28;43520;-62
2024/04/04 14:38:08;;;;;;;;;50.50;30.00;;;;;;;;10493054;28;49502;-62
2024/04/04 14:43:12;;;;;;;;;45.00;25.75;;;;;;;;10497247;28;43696;-62
2024/04/04 14:48:16;;;;;;;;;48.75;32.00;;;;;;;;10495792;28;42992;-62
2024/04/04 14:53:19;;;;;;;;;50.00;32.00;;;;;;;;10493885;28;43118;-62
2024/04/04 14:58:23;;;;;;;;;48.25;30.25;;;;;;;;10495547;28;42977;-62
2024/04/04 15:03:26;;;;;;;;;50.25;32.00;;;;;;;;10496990;28;43270;-63
2024/04/04 15:08:30;;;;;;;;;51.25;26.75;;;;;;;;10454060;28;44943;-62
2024/04/04 15:13:34;;;;;;;;;48.00;28.75;;;;;;;;10454114;28;43245;-62
2024/04/04 15:18:39;;;;;;;;;51.75;27.50;;;;;;;;10454109;28;42988;-62
2024/04/04 15:23:43;;;;;;;;;50.50;29.75;;;;;;;;10454456;28;43526;-61
2024/04/04 15:28:47;;;;;;;;;44.00;28.75;;;;;;;;10453167;28;43067;-62
2024/04/04 15:33:50;;;;;;;;;51.25;29.50;;;;;;;;10465378;28;42972;-62
2024/04/04 15:38:56;;;;;;;;;53.25;31.00;;;;;;;;10495088;28;42915;-63
2024/04/04 15:44:03;;;;;;;;;45.00;28.75;;;;;;;;10494570;28;44104;-63
2024/04/04 15:49:06;;;;;;;;;46.00;29.00;;;;;;;;10495846;28;43034;-63
2024/04/04 15:54:10;;;;;;;;;48.00;29.00;;;;;;;;10494873;28;44113;-63
2024/04/04 15:59:14;;;;;;;;;49.75;30.00;;;;;;;;10472387;28;42938;-62
2024/04/04 16:04:17;;;;;;;;;44.75;28.00;;;;;;;;10452253;28;43938;-62
2024/04/04 16:09:20;;;;;;;;;51.00;28.50;;;;;;;;10492702;28;43057;-62
2024/04/04 16:14:24;;;;;;;;;41.75;25.50;;;;;;;;10469460;28;44914;-62
2024/04/04 16:19:28;;;;;;;;;43.50;26.50;;;;;;;;10452049;28;42993;-62
2024/04/04 16:24:31;;;;;;;;;45.75;24.75;;;;;;;;10452685;28;43768;-62
2024/04/04 16:29:34;;;;;;;;;49.75;28.25;;;;;;;;10452872;28;43020;-62
2024/04/04 16:34:40;;;;;;;;;49.75;27.00;;;;;;;;10468982;28;42949;-62
2024/04/04 16:39:43;;;;;;;;;44.25;27.00;;;;;;;;10438253;28;43679;-62
2024/04/04 16:44:47;;;;;;;;;47.25;24.75;;;;;;;;10433360;28;43173;-62
2024/04/04 16:49:50;;;;;;;;;45.75;27.75;;;;;;;;10423485;28;43255;-62
2024/04/04 16:54:54;;;;;;;;;47.25;26.00;;;;;;;;10393259;28;42983;-62
2024/04/04 16:59:58;;;;;;;;;43.50;27.25;;;;;;;;10393017;28;43653;-62
2024/04/04 17:05:01;;;;;;;;;42.50;25.25;;;;;;;;10392096;28;43089;-62
2024/04/04 17:10:06;;;;;;;;;45.50;27.00;;;;;;;;10391472;28;43046;-62
2024/04/04 17:15:10;;;;;;;;;44.50;25.50;;;;;;;;10391478;28;44145;-62
2024/04/04 17:20:14;;;;;;;;;45.25;29.00;;;;;;;;10390863;28;43021;-62
2024/04/04 17:25:17;;;;;;;;;47.75;28.25;;;;;;;;10391128;28;43002;-62
2024/04/04 17:30:22;;;;;;;;;45.75;25.50;;;;;;;;10391532;28;43082;-62
2024/04/04 17:35:26;;;;;;;;;45.00;28.00;;;;;;;;10391613;28;43941;-62
2024/04/04 17:40:31;;;;;;;;;45.75;28.75;;;;;;;;10426632;28;49640;-62
2024/04/04 17:45:34;;;;;;;;;47.00;26.25;;;;;;;;10425744;28;43957;-62
2024/04/04 17:50:38;;;;;;;;;42.50;28.75;;;;;;;;10432858;28;43809;-62
2024/04/04 17:55:42;;;;;;;;;39.75;23.50;;;;;;;;10432020;28;43335;-62
2024/04/04 18:00:46;;;;;;;;;46.00;28.00;;;;;;;;10415764;28;43151;-63
2024/04/04 18:05:50;;;;;;;;;50.00;28.75;;;;;;;;10425129;28;43061;-63
2024/04/04 18:10:57;;;;;;;;;47.75;27.75;;;;;;;;10431919;28;48610;-63
2024/04/04 18:15:59;;;;;;;;;44.75;27.75;;;;;;;;10432589;28;48593;-63
2024/04/04 18:21:03;;;;;;;;;47.50;30.75;;;;;;;;10430871;28;42992;-63
2024/04/04 18:26:09;;;;;;;;;51.00;30.25;;;;;;;;10429719;28;44004;-60
2024/04/04 18:31:12;;;;;;;;;50.75;31.00;;;;;;;;10430414;28;44035;-60
2024/04/04 18:36:18;;;;;;;;;43.00;24.00;;;;;;;;10431247;28;43570;-63
2024/04/04 18:41:22;;;;;;;;;44.75;28.00;;;;;;;;10430397;28;43264;-63
2024/04/04 18:46:26;;;;;;;;;43.50;25.00;;;;;;;;10430405;28;43598;-63
2024/04/04 18:51:29;;;;;;;;;44.50;28.75;;;;;;;;10430718;28;43755;-60
2024/04/04 18:56:32;;;;;;;;;46.50;29.75;;;;;;;;10414760;28;43259;-60
2024/04/04 19:01:36;;;;;;;;;49.25;30.25;;;;;;;;10430368;28;43713;-60
2024/04/04 19:06:40;;;;;;;;;41.00;27.00;;;;;;;;10430105;28;43000;-60
2024/04/04 19:11:43;;;;;;;;;44.00;27.75;;;;;;;;10430528;28;43315;-59
2024/04/04 19:16:47;;;;;;;;;40.50;26.50;;;;;;;;10430793;28;43738;-60
2024/04/04 19:21:50;;;;;;;;;42.50;25.75;;;;;;;;10430415;28;42946;-60
2024/04/04 19:26:54;;;;;;;;;47.50;26.25;;;;;;;;10391855;28;43779;-61
2024/04/04 19:31:58;;;;;;;;;45.50;26.75;;;;;;;;10387687;28;42997;-61
2024/04/04 19:37:06;;;;;;;;;39.00;22.50;;;;;;;;10398149;28;43338;-61
2024/04/04 19:42:09;;;;;;;;;43.25;21.50;;;;;;;;10454570;28;42950;-61
2024/04/04 19:47:12;;;;;;;;;38.75;23.25;;;;;;;;10453982;28;43068;-61
2024/04/04 19:52:16;;;;;;;;;41.25;23.75;;;;;;;;10453146;28;43803;-61
2024/04/04 19:57:21;;;;;;;;;39.25;24.00;;;;;;;;10492501;28;43777;-61
2024/04/04 20:02:25;;;;;;;;;44.25;24.50;;;;;;;;10496947;28;42942;-61
2024/04/04 20:07:28;;;;;;;;;43.50;26.50;;;;;;;;10494997;28;43082;-61
2024/04/04 20:12:32;;;;;;;;;40.75;26.25;;;;;;;;10472402;28;44155;-61
2024/04/04 20:17:36;;;;;;;;;35.50;20.00;;;;;;;;10457215;28;42992;-61
2024/04/04 20:22:40;;;;;;;;;42.00;24.00;;;;;;;;10460231;28;42971;-61
2024/04/04 20:27:44;;;;;;;;;44.50;23.75;;;;;;;;10484488;28;43628;-61
2024/04/04 20:32:49;;;;;;;;;42.50;23.50;;;;;;;;10501871;28;43489;-62
2024/04/04 20:37:53;;;;;;;;;36.50;22.50;;;;;;;;10484333;28;42976;-62
2024/04/04 20:42:56;;;;;;;;;45.75;27.75;;;;;;;;10500985;28;43454;-62
2024/04/04 20:48:02;;;;;;;;;40.25;23.75;;;;;;;;10465970;28;43005;-61
2024/04/04 20:53:05;;;;;;;;;37.25;18.50;;;;;;;;10458711;28;44032;-61
2024/04/04 20:58:09;;;;;;;;;32.00;16.25;;;;;;;;10457934;28;42984;-61
2024/04/04 21:03:12;;;;;;;;;34.25;21.00;;;;;;;;10441703;28;43458;-61
2024/04/04 21:08:16;;;;;;;;;36.75;19.75;;;;;;;;10459109;28;43142;-63
2024/04/04 21:13:20;;;;;;;;;33.25;16.00;;;;;;;;10459038;28;43297;-61
2024/04/04 21:18:23;;;;;;;;;27.25;14.00;;;;;;;;10459332;28;43921;-60
2024/04/04 21:23:27;;;;;;;;;28.25;12.50;;;;;;;;10458034;28;43419;-62
2024/04/04 21:28:31;;;;;;;;;30.25;14.25;;;;;;;;10458865;28;43050;-62
2024/04/04 21:33:36;;;;;;;;;34.25;17.50;;;;;;;;10457654;28;43613;-62
2024/04/04 21:38:39;;;;;;;;;34.00;15.25;;;;;;;;10457496;28;43127;-60
2024/04/04 21:43:43;;;;;;;;;35.50;17.00;;;;;;;;10456802;28;49255;-60
2024/04/04 21:48:46;;;;;;;;;33.50;15.75;;;;;;;;10456842;28;42971;-61
2024/04/04 21:53:50;;;;;;;;;31.50;15.50;;;;;;;;10461782;28;43496;-62
2024/04/04 21:58:54;;;;;;;;;31.50;17.75;;;;;;;;10499524;28;43312;-63
2024/04/04 22:03:58;;;;;;;;;30.50;15.25;;;;;;;;10498829;28;43033;-63
2024/04/04 22:09:01;;;;;;;;;38.50;22.50;;;;;;;;10486626;28;43647;-63
2024/04/04 22:14:06;;;;;;;;;32.00;19.50;;;;;;;;10455519;28;43240;-60
2024/04/04 22:19:10;;;;;;;;;34.50;18.75;;;;;;;;10455362;28;42937;-61
2024/04/04 22:24:13;;;;;;;;;35.75;22.75;;;;;;;;10455799;28;43860;-61
2024/04/04 22:29:16;;;;;;;;;55.00;33.25;;;;;;;;10460005;28;43284;-59
2024/04/04 22:34:20;;;;;;;;;57.75;35.00;;;;;;;;10470888;28;43071;-63
2024/04/04 22:39:24;;;;;;;;;50.50;32.25;;;;;;;;10457099;28;43039;-59
2024/04/04 22:44:28;;;;;;;;;47.50;30.50;;;;;;;;10425396;28;43656;-59
2024/04/04 22:49:32;;;;;;;;;47.25;30.25;;;;;;;;10453536;28;42892;-60
2024/04/04 22:54:36;;;;;;;;;47.00;30.00;;;;;;;;10427576;28;44539;-59
2024/04/04 22:59:39;;;;;;;;;47.75;30.00;;;;;;;;10427798;28;43027;-62
2024/04/04 23:04:42;;;;;;;;;45.75;29.00;;;;;;;;10465916;28;44062;-62
2024/04/04 23:09:46;;;;;;;;;47.25;27.50;;;;;;;;10457559;28;43004;-61
2024/04/04 23:14:54;;;;;;;;;54.75;29.75;;;;;;;;10452052;28;43884;-61
2024/04/04 23:19:57;;;;;;;;;48.25;30.00;;;;;;;;10425021;28;44097;-61
2024/04/04 23:25:01;;;;;;;;;48.50;30.00;;;;;;;;10453259;28;43575;-59
2024/04/04 23:30:07;;;;;;;;;49.50;29.50;;;;;;;;10453238;28;43128;-62
2024/04/04 23:35:10;;;;;;;;;47.75;30.00;;;;;;;;10439011;28;44061;-61
2024/04/04 23:40:14;;;;;;;;;49.25;30.00;;;;;;;;10396760;28;42991;-62
2024/04/04 23:45:18;;;;;;;;;47.25;27.75;;;;;;;;10429266;28;43053;-61
2024/04/04 23:50:22;;;;;;;;;45.50;29.75;;;;;;;;10427428;28;48325;-62
2024/04/04 23:55:27;;;;;;;;;47.00;28.75;;;;;;;;10403984;28;43998;-61
